sensor_id;sensor_type;location;lat;lon;timestamp;P1;durP1;ratioP1;P2;durP2;ratioP2
966;SDS011;56108;48.730;9.304;2023-06-22T00:00:35;7.70;;;5.22;;
966;SDS011;56108;48.730;9.304;2023-06-22T00:02:43;5.93;;;5.18;;
966;SDS011;56108;48.730;9.304;2023-06-22T00:04:51;5.95;;;4.97;;
966;SDS011;56108;48.730;9.304;2023-06-22T00:07:00;4.35;;;3.95;;
966;SDS011;56108;48.730;9.304;2023-06-22T00:09:08;4.93;;;4.43;;
966;SDS011;56108;48.730;9.304;2023-06-22T00:11:16;5.95;;;5.35;;
966;SDS011;56108;48.730;9.304;2023-06-22T00:13:28;6.00;;;5.40;;
966;SDS011;56108;48.730;9.304;2023-06-22T00:15:38;5.40;;;4.15;;
966;SDS011;56108;48.730;9.304;2023-06-22T00:17:48;5.68;;;5.15;;
966;SDS011;56108;48.730;9.304;2023-06-22T00:19:57;5.80;;;5.30;;
966;SDS011;56108;48.730;9.304;2023-06-22T00:22:05;5.63;;;4.65;;
966;SDS011;56108;48.730;9.304;2023-06-22T00:24:13;5.10;;;4.25;;
966;SDS011;56108;48.730;9.304;2023-06-22T00:26:21;4.38;;;3.80;;
966;SDS011;56108;48.730;9.304;2023-06-22T00:28:32;6.38;;;5.32;;
966;SDS011;56108;48.730;9.304;2023-06-22T00:30:40;5.38;;;4.82;;
966;SDS011;56108;48.730;9.304;2023-06-22T00:32:48;6.10;;;5.55;;
966;SDS011;56108;48.730;9.304;2023-06-22T00:34:56;6.75;;;5.50;;
966;SDS011;56108;48.730;9.304;2023-06-22T00:37:07;5.68;;;5.07;;
966;SDS011;56108;48.730;9.304;2023-06-22T00:39:18;4.50;;;4.10;;
966;SDS011;56108;48.730;9.304;2023-06-22T00:41:27;6.22;;;5.03;;
966;SDS011;56108;48.730;9.304;2023-06-22T00:43:38;5.32;;;4.28;;
966;SDS011;56108;48.730;9.304;2023-06-22T00:45:46;4.35;;;3.85;;
966;SDS011;56108;48.730;9.304;2023-06-22T00:47:57;5.70;;;4.82;;
966;SDS011;56108;48.730;9.304;2023-06-22T00:50:06;7.70;;;4.93;;
966;SDS011;56108;48.730;9.304;2023-06-22T00:52:15;5.80;;;5.22;;
966;SDS011;56108;48.730;9.304;2023-06-22T00:54:26;5.50;;;4.90;;
966;SDS011;56108;48.730;9.304;2023-06-22T00:56:34;5.45;;;4.63;;
966;SDS011;56108;48.730;9.304;2023-06-22T00:58:45;5.85;;;5.35;;
966;SDS011;56108;48.730;9.304;2023-06-22T01:00:54;6.75;;;5.30;;
966;SDS011;56108;48.730;9.304;2023-06-22T01:03:04;6.50;;;4.93;;
966;SDS011;56108;48.730;9.304;2023-06-22T01:05:15;4.35;;;4.05;;
966;SDS011;56108;48.730;9.304;2023-06-22T01:07:25;4.80;;;4.30;;
966;SDS011;56108;48.730;9.304;2023-06-22T01:09:40;4.80;;;4.15;;
966;SDS011;56108;48.730;9.304;2023-06-22T01:11:58;4.90;;;4.38;;
966;SDS011;56108;48.730;9.304;2023-06-22T01:14:15;6.15;;;4.30;;
966;SDS011;56108;48.730;9.304;2023-06-22T01:16:34;9.07;;;5.13;;
966;SDS011;56108;48.730;9.304;2023-06-22T01:18:48;4.90;;;4.43;;
966;SDS011;56108;48.730;9.304;2023-06-22T01:20:59;4.93;;;4.30;;
966;SDS011;56108;48.730;9.304;2023-06-22T01:23:16;5.85;;;5.30;;
966;SDS011;56108;48.730;9.304;2023-06-22T01:25:34;6.80;;;4.63;;
966;SDS011;56108;48.730;9.304;2023-06-22T01:27:53;5.07;;;4.35;;
966;SDS011;56108;48.730;9.304;2023-06-22T01:30:12;5.53;;;4.63;;
966;SDS011;56108;48.730;9.304;2023-06-22T01:32:23;5.53;;;5.00;;
966;SDS011;56108;48.730;9.304;2023-06-22T01:34:32;5.00;;;4.60;;
966;SDS011;56108;48.730;9.304;2023-06-22T01:36:44;5.07;;;4.57;;
966;SDS011;56108;48.730;9.304;2023-06-22T01:38:54;5.20;;;4.00;;
966;SDS011;56108;48.730;9.304;2023-06-22T01:41:04;3.60;;;3.38;;
966;SDS011;56108;48.730;9.304;2023-06-22T01:43:12;4.93;;;4.53;;
966;SDS011;56108;48.730;9.304;2023-06-22T01:45:23;6.85;;;5.20;;
966;SDS011;56108;48.730;9.304;2023-06-22T01:47:34;5.85;;;4.25;;
966;SDS011;56108;48.730;9.304;2023-06-22T01:49:42;6.10;;;4.10;;
966;SDS011;56108;48.730;9.304;2023-06-22T01:51:51;4.72;;;4.30;;
966;SDS011;56108;48.730;9.304;2023-06-22T01:54:00;5.63;;;4.55;;
966;SDS011;56108;48.730;9.304;2023-06-22T01:56:09;4.97;;;4.47;;
966;SDS011;56108;48.730;9.304;2023-06-22T01:58:20;4.85;;;4.25;;
966;SDS011;56108;48.730;9.304;2023-06-22T02:00:34;5.13;;;4.65;;
966;SDS011;56108;48.730;9.304;2023-06-22T02:02:47;5.90;;;5.15;;
966;SDS011;56108;48.730;9.304;2023-06-22T02:05:01;4.72;;;4.22;;
966;SDS011;56108;48.730;9.304;2023-06-22T02:07:15;4.70;;;4.20;;
966;SDS011;56108;48.730;9.304;2023-06-22T02:09:27;4.95;;;4.25;;
966;SDS011;56108;48.730;9.304;2023-06-22T02:11:38;3.75;;;3.45;;
966;SDS011;56108;48.730;9.304;2023-06-22T02:13:52;5.90;;;4.03;;
966;SDS011;56108;48.730;9.304;2023-06-22T02:16:04;5.35;;;4.50;;
966;SDS011;56108;48.730;9.304;2023-06-22T02:18:12;6.60;;;5.95;;
966;SDS011;56108;48.730;9.304;2023-06-22T02:20:20;6.80;;;6.07;;
966;SDS011;56108;48.730;9.304;2023-06-22T02:22:28;6.28;;;5.53;;
966;SDS011;56108;48.730;9.304;2023-06-22T02:24:37;5.95;;;5.35;;
966;SDS011;56108;48.730;9.304;2023-06-22T02:26:45;7.07;;;6.38;;
966;SDS011;56108;48.730;9.304;2023-06-22T02:28:53;9.85;;;6.25;;
966;SDS011;56108;48.730;9.304;2023-06-22T02:31:03;6.55;;;5.90;;
966;SDS011;56108;48.730;9.304;2023-06-22T02:33:11;6.00;;;5.28;;
966;SDS011;56108;48.730;9.304;2023-06-22T02:35:23;7.13;;;5.82;;
966;SDS011;56108;48.730;9.304;2023-06-22T02:37:31;5.93;;;5.13;;
966;SDS011;56108;48.730;9.304;2023-06-22T02:39:39;7.00;;;6.22;;
966;SDS011;56108;48.730;9.304;2023-06-22T02:41:48;6.40;;;5.03;;
966;SDS011;56108;48.730;9.304;2023-06-22T02:43:56;6.63;;;5.88;;
966;SDS011;56108;48.730;9.304;2023-06-22T02:46:07;6.63;;;5.40;;
966;SDS011;56108;48.730;9.304;2023-06-22T02:48:16;6.15;;;5.53;;
966;SDS011;56108;48.730;9.304;2023-06-22T02:50:24;5.40;;;4.90;;
966;SDS011;56108;48.730;9.304;2023-06-22T02:52:32;6.88;;;6.07;;
966;SDS011;56108;48.730;9.304;2023-06-22T02:54:41;5.65;;;4.50;;
966;SDS011;56108;48.730;9.304;2023-06-22T02:56:51;7.40;;;4.95;;
966;SDS011;56108;48.730;9.304;2023-06-22T02:58:59;6.13;;;5.00;;
966;SDS011;56108;48.730;9.304;2023-06-22T03:01:16;4.82;;;4.32;;
966;SDS011;56108;48.730;9.304;2023-06-22T03:03:29;4.90;;;4.20;;
966;SDS011;56108;48.730;9.304;2023-06-22T03:05:37;5.45;;;4.95;;
966;SDS011;56108;48.730;9.304;2023-06-22T03:07:46;4.60;;;4.20;;
966;SDS011;56108;48.730;9.304;2023-06-22T03:09:54;7.65;;;4.82;;
966;SDS011;56108;48.730;9.304;2023-06-22T03:12:02;4.57;;;3.95;;
966;SDS011;56108;48.730;9.304;2023-06-22T03:14:19;5.43;;;4.93;;
966;SDS011;56108;48.730;9.304;2023-06-22T03:16:31;6.28;;;4.78;;
966;SDS011;56108;48.730;9.304;2023-06-22T03:18:41;5.30;;;4.47;;
966;SDS011;56108;48.730;9.304;2023-06-22T03:20:50;4.65;;;4.25;;
966;SDS011;56108;48.730;9.304;2023-06-22T03:22:58;4.80;;;4.40;;
966;SDS011;56108;48.730;9.304;2023-06-22T03:25:07;5.13;;;4.60;;
966;SDS011;56108;48.730;9.304;2023-06-22T03:27:21;6.82;;;6.13;;
966;SDS011;56108;48.730;9.304;2023-06-22T03:29:29;5.40;;;4.97;;
966;SDS011;56108;48.730;9.304;2023-06-22T03:31:40;6.15;;;5.65;;
966;SDS011;56108;48.730;9.304;2023-06-22T03:33:48;6.55;;;5.85;;
966;SDS011;56108;48.730;9.304;2023-06-22T03:35:59;8.70;;;5.40;;
966;SDS011;56108;48.730;9.304;2023-06-22T03:38:07;6.72;;;6.10;;
966;SDS011;56108;48.730;9.304;2023-06-22T03:40:15;5.90;;;5.03;;
966;SDS011;56108;48.730;9.304;2023-06-22T03:42:23;9.00;;;5.97;;
966;SDS011;56108;48.730;9.304;2023-06-22T03:44:31;6.90;;;6.10;;
966;SDS011;56108;48.730;9.304;2023-06-22T03:46:45;7.78;;;6.28;;
966;SDS011;56108;48.730;9.304;2023-06-22T03:48:56;10.20;;;7.18;;
966;SDS011;56108;48.730;9.304;2023-06-22T03:51:07;6.38;;;5.55;;
966;SDS011;56108;48.730;9.304;2023-06-22T03:53:16;7.72;;;6.00;;
966;SDS011;56108;48.730;9.304;2023-06-22T03:55:24;7.22;;;6.40;;
966;SDS011;56108;48.730;9.304;2023-06-22T03:57:32;8.02;;;5.93;;
966;SDS011;56108;48.730;9.304;2023-06-22T03:59:41;6.97;;;6.28;;
966;SDS011;56108;48.730;9.304;2023-06-22T04:01:51;8.50;;;7.70;;
966;SDS011;56108;48.730;9.304;2023-06-22T04:03:59;8.20;;;5.70;;
966;SDS011;56108;48.730;9.304;2023-06-22T04:06:07;5.95;;;5.28;;
966;SDS011;56108;48.730;9.304;2023-06-22T04:08:15;8.02;;;7.18;;
966;SDS011;56108;48.730;9.304;2023-06-22T04:10:24;8.20;;;7.03;;
966;SDS011;56108;48.730;9.304;2023-06-22T04:12:32;7.72;;;6.72;;
966;SDS011;56108;48.730;9.304;2023-06-22T04:14:40;7.20;;;6.45;;
966;SDS011;56108;48.730;9.304;2023-06-22T04:16:48;6.55;;;5.95;;
966;SDS011;56108;48.730;9.304;2023-06-22T04:18:59;6.18;;;5.63;;
966;SDS011;56108;48.730;9.304;2023-06-22T04:21:07;7.23;;;6.50;;
966;SDS011;56108;48.730;9.304;2023-06-22T04:23:15;6.53;;;5.83;;
966;SDS011;56108;48.730;9.304;2023-06-22T04:25:23;6.63;;;5.50;;
966;SDS011;56108;48.730;9.304;2023-06-22T04:27:31;6.10;;;5.50;;
966;SDS011;56108;48.730;9.304;2023-06-22T04:29:41;5.40;;;4.83;;
966;SDS011;56108;48.730;9.304;2023-06-22T04:31:53;8.93;;;5.70;;
966;SDS011;56108;48.730;9.304;2023-06-22T04:34:07;6.47;;;5.63;;
966;SDS011;56108;48.730;9.304;2023-06-22T04:36:15;5.80;;;5.20;;
966;SDS011;56108;48.730;9.304;2023-06-22T04:38:23;6.10;;;5.50;;
966;SDS011;56108;48.730;9.304;2023-06-22T04:40:31;5.20;;;4.73;;
966;SDS011;56108;48.730;9.304;2023-06-22T04:42:39;7.10;;;6.40;;
966;SDS011;56108;48.730;9.304;2023-06-22T04:44:58;7.40;;;6.70;;
966;SDS011;56108;48.730;9.304;2023-06-22T04:47:06;6.67;;;6.07;;
966;SDS011;56108;48.730;9.304;2023-06-22T04:49:18;7.83;;;6.77;;
966;SDS011;56108;48.730;9.304;2023-06-22T04:51:26;7.40;;;6.70;;
966;SDS011;56108;48.730;9.304;2023-06-22T04:53:35;6.70;;;6.00;;
966;SDS011;56108;48.730;9.304;2023-06-22T04:55:45;5.87;;;5.27;;
966;SDS011;56108;48.730;9.304;2023-06-22T04:57:54;6.10;;;5.50;;
966;SDS011;56108;48.730;9.304;2023-06-22T05:00:11;8.00;;;6.57;;
966;SDS011;56108;48.730;9.304;2023-06-22T05:02:22;6.67;;;5.87;;
966;SDS011;56108;48.730;9.304;2023-06-22T05:04:40;7.97;;;6.13;;
966;SDS011;56108;48.730;9.304;2023-06-22T05:06:48;8.50;;;6.23;;
966;SDS011;56108;48.730;9.304;2023-06-22T05:08:57;5.73;;;5.13;;
966;SDS011;56108;48.730;9.304;2023-06-22T05:11:05;6.67;;;5.83;;
966;SDS011;56108;48.730;9.304;2023-06-22T05:13:13;6.03;;;4.90;;
966;SDS011;56108;48.730;9.304;2023-06-22T05:15:21;5.47;;;4.87;;
966;SDS011;56108;48.730;9.304;2023-06-22T05:17:32;5.30;;;4.80;;
966;SDS011;56108;48.730;9.304;2023-06-22T05:19:43;7.73;;;6.60;;
966;SDS011;56108;48.730;9.304;2023-06-22T05:21:52;6.30;;;5.70;;
966;SDS011;56108;48.730;9.304;2023-06-22T05:24:02;7.00;;;5.50;;
966;SDS011;56108;48.730;9.304;2023-06-22T05:26:11;5.47;;;4.90;;
966;SDS011;56108;48.730;9.304;2023-06-22T05:28:19;7.63;;;5.30;;
966;SDS011;56108;48.730;9.304;2023-06-22T05:30:28;5.53;;;5.03;;
966;SDS011;56108;48.730;9.304;2023-06-22T05:32:37;8.30;;;5.50;;
966;SDS011;56108;48.730;9.304;2023-06-22T05:34:48;7.47;;;5.00;;
966;SDS011;56108;48.730;9.304;2023-06-22T05:36:56;6.10;;;5.50;;
966;SDS011;56108;48.730;9.304;2023-06-22T05:39:10;5.93;;;5.33;;
966;SDS011;56108;48.730;9.304;2023-06-22T05:41:20;8.07;;;5.27;;
966;SDS011;56108;48.730;9.304;2023-06-22T05:43:29;3.83;;;3.40;;
966;SDS011;56108;48.730;9.304;2023-06-22T05:45:37;5.73;;;5.13;;
966;SDS011;56108;48.730;9.304;2023-06-22T05:47:45;5.67;;;4.03;;
966;SDS011;56108;48.730;9.304;2023-06-22T05:49:56;4.17;;;3.87;;
966;SDS011;56108;48.730;9.304;2023-06-22T05:52:04;4.33;;;4.03;;
966;SDS011;56108;48.730;9.304;2023-06-22T05:54:12;4.00;;;3.60;;
966;SDS011;56108;48.730;9.304;2023-06-22T05:56:22;4.30;;;3.90;;
966;SDS011;56108;48.730;9.304;2023-06-22T05:58:30;4.37;;;3.93;;
966;SDS011;56108;48.730;9.304;2023-06-22T06:00:38;5.07;;;4.00;;
966;SDS011;56108;48.730;9.304;2023-06-22T06:02:47;4.00;;;3.50;;
966;SDS011;56108;48.730;9.304;2023-06-22T06:04:58;3.43;;;3.13;;
966;SDS011;56108;48.730;9.304;2023-06-22T06:07:08;4.30;;;3.33;;
966;SDS011;56108;48.730;9.304;2023-06-22T06:09:16;3.97;;;3.57;;
966;SDS011;56108;48.730;9.304;2023-06-22T06:11:24;3.60;;;3.30;;
966;SDS011;56108;48.730;9.304;2023-06-22T06:13:32;3.97;;;3.57;;
966;SDS011;56108;48.730;9.304;2023-06-22T06:15:40;4.30;;;3.90;;
966;SDS011;56108;48.730;9.304;2023-06-22T06:17:50;3.90;;;3.60;;
966;SDS011;56108;48.730;9.304;2023-06-22T06:20:02;3.93;;;3.63;;
966;SDS011;56108;48.730;9.304;2023-06-22T06:22:12;3.70;;;3.40;;
966;SDS011;56108;48.730;9.304;2023-06-22T06:24:20;3.63;;;3.33;;
966;SDS011;56108;48.730;9.304;2023-06-22T06:26:28;4.37;;;3.30;;
966;SDS011;56108;48.730;9.304;2023-06-22T06:28:37;3.20;;;2.90;;
966;SDS011;56108;48.730;9.304;2023-06-22T06:30:45;3.77;;;3.47;;
966;SDS011;56108;48.730;9.304;2023-06-22T06:32:54;3.33;;;3.03;;
966;SDS011;56108;48.730;9.304;2023-06-22T06:35:05;3.23;;;2.93;;
966;SDS011;56108;48.730;9.304;2023-06-22T06:37:14;3.17;;;2.73;;
966;SDS011;56108;48.730;9.304;2023-06-22T06:39:23;4.23;;;3.30;;
966;SDS011;56108;48.730;9.304;2023-06-22T06:41:31;3.20;;;3.00;;
966;SDS011;56108;48.730;9.304;2023-06-22T06:43:39;5.03;;;3.17;;
966;SDS011;56108;48.730;9.304;2023-06-22T06:45:48;3.20;;;2.90;;
966;SDS011;56108;48.730;9.304;2023-06-22T06:47:56;3.43;;;2.83;;
966;SDS011;56108;48.730;9.304;2023-06-22T06:50:08;3.63;;;3.10;;
966;SDS011;56108;48.730;9.304;2023-06-22T06:52:16;3.47;;;3.17;;
966;SDS011;56108;48.730;9.304;2023-06-22T06:54:24;3.70;;;3.40;;
966;SDS011;56108;48.730;9.304;2023-06-22T06:56:32;3.43;;;2.60;;
966;SDS011;56108;48.730;9.304;2023-06-22T06:58:41;2.90;;;2.70;;
966;SDS011;56108;48.730;9.304;2023-06-22T07:00:50;2.87;;;2.67;;
966;SDS011;56108;48.730;9.304;2023-06-22T07:02:58;3.60;;;3.10;;
966;SDS011;56108;48.730;9.304;2023-06-22T07:05:09;2.67;;;2.47;;
966;SDS011;56108;48.730;9.304;2023-06-22T07:07:17;2.93;;;2.67;;
966;SDS011;56108;48.730;9.304;2023-06-22T07:09:25;3.10;;;2.90;;
966;SDS011;56108;48.730;9.304;2023-06-22T07:11:34;3.27;;;2.90;;
966;SDS011;56108;48.730;9.304;2023-06-22T07:13:42;2.77;;;2.57;;
966;SDS011;56108;48.730;9.304;2023-06-22T07:15:50;2.50;;;2.30;;
966;SDS011;56108;48.730;9.304;2023-06-22T07:17:58;3.50;;;2.40;;
966;SDS011;56108;48.730;9.304;2023-06-22T07:20:09;3.20;;;2.90;;
966;SDS011;56108;48.730;9.304;2023-06-22T07:22:18;3.37;;;3.07;;
966;SDS011;56108;48.730;9.304;2023-06-22T07:24:26;3.73;;;3.43;;
966;SDS011;56108;48.730;9.304;2023-06-22T07:26:34;2.93;;;2.57;;
966;SDS011;56108;48.730;9.304;2023-06-22T07:28:42;3.90;;;2.73;;
966;SDS011;56108;48.730;9.304;2023-06-22T07:30:51;3.03;;;2.67;;
966;SDS011;56108;48.730;9.304;2023-06-22T07:32:59;2.37;;;2.17;;
966;SDS011;56108;48.730;9.304;2023-06-22T07:35:11;3.20;;;3.00;;
966;SDS011;56108;48.730;9.304;2023-06-22T07:37:21;4.93;;;3.10;;
966;SDS011;56108;48.730;9.304;2023-06-22T07:39:29;7.33;;;3.03;;
966;SDS011;56108;48.730;9.304;2023-06-22T07:41:38;2.53;;;2.33;;
966;SDS011;56108;48.730;9.304;2023-06-22T07:43:47;3.97;;;3.00;;
966;SDS011;56108;48.730;9.304;2023-06-22T07:45:56;5.50;;;2.90;;
966;SDS011;56108;48.730;9.304;2023-06-22T07:48:04;2.63;;;2.43;;
966;SDS011;56108;48.730;9.304;2023-06-22T07:50:15;5.07;;;2.50;;
966;SDS011;56108;48.730;9.304;2023-06-22T07:52:23;3.50;;;2.70;;
966;SDS011;56108;48.730;9.304;2023-06-22T07:54:32;3.20;;;2.90;;
966;SDS011;56108;48.730;9.304;2023-06-22T07:56:40;6.00;;;3.47;;
966;SDS011;56108;48.730;9.304;2023-06-22T07:58:48;2.60;;;2.40;;
966;SDS011;56108;48.730;9.304;2023-06-22T08:00:57;3.80;;;2.90;;
966;SDS011;56108;48.730;9.304;2023-06-22T08:03:06;2.97;;;2.77;;
966;SDS011;56108;48.730;9.304;2023-06-22T08:05:17;3.50;;;2.67;;
966;SDS011;56108;48.730;9.304;2023-06-22T08:07:26;6.87;;;2.77;;
966;SDS011;56108;48.730;9.304;2023-06-22T08:09:34;6.73;;;3.20;;
966;SDS011;56108;48.730;9.304;2023-06-22T08:11:43;7.40;;;3.77;;
966;SDS011;56108;48.730;9.304;2023-06-22T08:13:51;3.50;;;3.20;;
966;SDS011;56108;48.730;9.304;2023-06-22T08:16:03;3.77;;;3.10;;
966;SDS011;56108;48.730;9.304;2023-06-22T08:18:12;2.90;;;2.63;;
966;SDS011;56108;48.730;9.304;2023-06-22T08:20:23;3.43;;;3.13;;
966;SDS011;56108;48.730;9.304;2023-06-22T08:22:34;4.43;;;3.10;;
966;SDS011;56108;48.730;9.304;2023-06-22T08:24:43;6.27;;;3.50;;
966;SDS011;56108;48.730;9.304;2023-06-22T08:26:51;3.07;;;2.80;;
966;SDS011;56108;48.730;9.304;2023-06-22T08:29:00;3.97;;;3.30;;
966;SDS011;56108;48.730;9.304;2023-06-22T08:31:10;5.10;;;2.83;;
966;SDS011;56108;48.730;9.304;2023-06-22T08:33:18;3.30;;;3.00;;
966;SDS011;56108;48.730;9.304;2023-06-22T08:35:34;3.00;;;2.70;;
966;SDS011;56108;48.730;9.304;2023-06-22T08:37:43;3.03;;;2.73;;
966;SDS011;56108;48.730;9.304;2023-06-22T08:39:55;5.70;;;3.20;;
966;SDS011;56108;48.730;9.304;2023-06-22T08:42:08;3.90;;;3.10;;
966;SDS011;56108;48.730;9.304;2023-06-22T08:44:17;3.27;;;2.87;;
966;SDS011;56108;48.730;9.304;2023-06-22T08:46:26;3.17;;;2.90;;
966;SDS011;56108;48.730;9.304;2023-06-22T08:48:38;3.47;;;3.17;;
966;SDS011;56108;48.730;9.304;2023-06-22T08:50:52;3.83;;;3.23;;
966;SDS011;56108;48.730;9.304;2023-06-22T08:53:00;3.20;;;2.73;;
966;SDS011;56108;48.730;9.304;2023-06-22T08:55:09;4.83;;;3.40;;
966;SDS011;56108;48.730;9.304;2023-06-22T08:57:20;3.53;;;3.20;;
966;SDS011;56108;48.730;9.304;2023-06-22T08:59:30;3.70;;;3.30;;
966;SDS011;56108;48.730;9.304;2023-06-22T09:01:41;4.60;;;3.43;;
966;SDS011;56108;48.730;9.304;2023-06-22T09:03:53;3.63;;;3.33;;
966;SDS011;56108;48.730;9.304;2023-06-22T09:06:07;3.70;;;3.40;;
966;SDS011;56108;48.730;9.304;2023-06-22T09:08:18;3.23;;;3.03;;
966;SDS011;56108;48.730;9.304;2023-06-22T09:10:26;3.30;;;2.90;;
966;SDS011;56108;48.730;9.304;2023-06-22T09:12:35;3.53;;;3.27;;
966;SDS011;56108;48.730;9.304;2023-06-22T09:14:45;3.13;;;2.83;;
966;SDS011;56108;48.730;9.304;2023-06-22T09:16:54;3.53;;;3.23;;
966;SDS011;56108;48.730;9.304;2023-06-22T09:19:04;3.97;;;3.57;;
966;SDS011;56108;48.730;9.304;2023-06-22T09:21:15;4.23;;;3.33;;
966;SDS011;56108;48.730;9.304;2023-06-22T09:23:24;3.67;;;3.37;;
966;SDS011;56108;48.730;9.304;2023-06-22T09:25:32;4.17;;;3.77;;
966;SDS011;56108;48.730;9.304;2023-06-22T09:27:40;3.63;;;3.33;;
966;SDS011;56108;48.730;9.304;2023-06-22T09:29:50;3.23;;;3.03;;
966;SDS011;56108;48.730;9.304;2023-06-22T09:31:59;4.10;;;3.80;;
966;SDS011;56108;48.730;9.304;2023-06-22T09:34:08;5.17;;;3.43;;
966;SDS011;56108;48.730;9.304;2023-06-22T09:36:18;4.77;;;3.90;;
966;SDS011;56108;48.730;9.304;2023-06-22T09:38:26;4.60;;;3.67;;
966;SDS011;56108;48.730;9.304;2023-06-22T09:40:34;4.37;;;3.23;;
966;SDS011;56108;48.730;9.304;2023-06-22T09:42:44;4.20;;;3.20;;
966;SDS011;56108;48.730;9.304;2023-06-22T09:44:55;4.63;;;3.73;;
966;SDS011;56108;48.730;9.304;2023-06-22T09:47:05;8.90;;;4.57;;
966;SDS011;56108;48.730;9.304;2023-06-22T09:49:14;8.03;;;4.17;;
966;SDS011;56108;48.730;9.304;2023-06-22T09:51:34;5.60;;;4.37;;
966;SDS011;56108;48.730;9.304;2023-06-22T09:53:42;5.87;;;4.03;;
966;SDS011;56108;48.730;9.304;2023-06-22T09:55:50;5.73;;;4.07;;
966;SDS011;56108;48.730;9.304;2023-06-22T09:57:59;5.53;;;4.10;;
966;SDS011;56108;48.730;9.304;2023-06-22T10:00:08;5.07;;;4.23;;
966;SDS011;56108;48.730;9.304;2023-06-22T10:02:18;4.40;;;4.00;;
966;SDS011;56108;48.730;9.304;2023-06-22T10:04:27;7.40;;;3.77;;
966;SDS011;56108;48.730;9.304;2023-06-22T10:06:38;8.00;;;4.10;;
966;SDS011;56108;48.730;9.304;2023-06-22T10:08:46;4.87;;;4.47;;
966;SDS011;56108;48.730;9.304;2023-06-22T10:10:55;6.83;;;4.67;;
966;SDS011;56108;48.730;9.304;2023-06-22T10:13:07;4.90;;;4.53;;
966;SDS011;56108;48.730;9.304;2023-06-22T10:15:18;4.67;;;4.10;;
966;SDS011;56108;48.730;9.304;2023-06-22T10:17:26;5.77;;;3.97;;
966;SDS011;56108;48.730;9.304;2023-06-22T10:19:34;4.60;;;3.77;;
966;SDS011;56108;48.730;9.304;2023-06-22T10:21:46;6.50;;;4.27;;
966;SDS011;56108;48.730;9.304;2023-06-22T10:23:54;5.17;;;4.67;;
966;SDS011;56108;48.730;9.304;2023-06-22T10:26:02;6.43;;;4.50;;
966;SDS011;56108;48.730;9.304;2023-06-22T10:28:10;4.83;;;4.27;;
966;SDS011;56108;48.730;9.304;2023-06-22T10:30:20;4.93;;;4.37;;
966;SDS011;56108;48.730;9.304;2023-06-22T10:32:28;5.30;;;4.20;;
966;SDS011;56108;48.730;9.304;2023-06-22T10:34:37;7.23;;;4.30;;
966;SDS011;56108;48.730;9.304;2023-06-22T10:36:47;4.30;;;4.00;;
966;SDS011;56108;48.730;9.304;2023-06-22T10:38:55;6.33;;;4.90;;
966;SDS011;56108;48.730;9.304;2023-06-22T10:41:04;9.23;;;5.30;;
966;SDS011;56108;48.730;9.304;2023-06-22T10:43:12;7.17;;;4.47;;
966;SDS011;56108;48.730;9.304;2023-06-22T10:45:20;4.63;;;4.23;;
966;SDS011;56108;48.730;9.304;2023-06-22T10:47:28;4.60;;;4.20;;
966;SDS011;56108;48.730;9.304;2023-06-22T10:49:37;6.47;;;4.40;;
966;SDS011;56108;48.730;9.304;2023-06-22T10:51:48;8.30;;;4.73;;
966;SDS011;56108;48.730;9.304;2023-06-22T10:53:56;4.90;;;4.47;;
966;SDS011;56108;48.730;9.304;2023-06-22T10:56:04;7.00;;;4.90;;
966;SDS011;56108;48.730;9.304;2023-06-22T10:58:12;5.73;;;5.20;;
966;SDS011;56108;48.730;9.304;2023-06-22T11:00:20;6.70;;;4.97;;
966;SDS011;56108;48.730;9.304;2023-06-22T11:02:29;4.90;;;4.40;;
966;SDS011;56108;48.730;9.304;2023-06-22T11:04:37;5.70;;;4.93;;
966;SDS011;56108;48.730;9.304;2023-06-22T11:06:48;7.10;;;5.37;;
966;SDS011;56108;48.730;9.304;2023-06-22T11:08:58;5.17;;;4.67;;
966;SDS011;56108;48.730;9.304;2023-06-22T11:11:28;4.53;;;4.17;;
966;SDS011;56108;48.730;9.304;2023-06-22T11:13:38;5.17;;;4.70;;
966;SDS011;56108;48.730;9.304;2023-06-22T11:15:46;5.93;;;5.03;;
966;SDS011;56108;48.730;9.304;2023-06-22T11:17:55;4.77;;;4.27;;
966;SDS011;56108;48.730;9.304;2023-06-22T11:20:03;5.17;;;4.63;;
966;SDS011;56108;48.730;9.304;2023-06-22T11:22:18;5.83;;;4.10;;
966;SDS011;56108;48.730;9.304;2023-06-22T11:24:27;8.50;;;4.30;;
966;SDS011;56108;48.730;9.304;2023-06-22T11:26:35;7.40;;;5.10;;
966;SDS011;56108;48.730;9.304;2023-06-22T11:28:44;5.33;;;4.70;;
966;SDS011;56108;48.730;9.304;2023-06-22T11:30:52;4.80;;;4.30;;
966;SDS011;56108;48.730;9.304;2023-06-22T11:33:05;5.37;;;4.57;;
966;SDS011;56108;48.730;9.304;2023-06-22T11:35:14;5.10;;;4.60;;
966;SDS011;56108;48.730;9.304;2023-06-22T11:37:24;5.03;;;4.60;;
966;SDS011;56108;48.730;9.304;2023-06-22T11:39:33;5.70;;;4.37;;
966;SDS011;56108;48.730;9.304;2023-06-22T11:41:46;7.97;;;4.50;;
966;SDS011;56108;48.730;9.304;2023-06-22T11:43:54;4.67;;;4.20;;
966;SDS011;56108;48.730;9.304;2023-06-22T11:46:03;7.43;;;4.40;;
966;SDS011;56108;48.730;9.304;2023-06-22T11:48:11;7.23;;;4.73;;
966;SDS011;56108;48.730;9.304;2023-06-22T11:50:20;5.07;;;4.17;;
966;SDS011;56108;48.730;9.304;2023-06-22T11:52:33;5.53;;;4.50;;
966;SDS011;56108;48.730;9.304;2023-06-22T11:54:41;4.53;;;3.90;;
966;SDS011;56108;48.730;9.304;2023-06-22T11:56:51;4.17;;;3.80;;
966;SDS011;56108;48.730;9.304;2023-06-22T11:59:00;4.53;;;4.13;;
966;SDS011;56108;48.730;9.304;2023-06-22T12:01:08;5.50;;;4.13;;
966;SDS011;56108;48.730;9.304;2023-06-22T12:03:19;6.70;;;4.13;;
966;SDS011;56108;48.730;9.304;2023-06-22T12:05:29;6.97;;;4.30;;
966;SDS011;56108;48.730;9.304;2023-06-22T12:07:39;6.40;;;4.57;;
966;SDS011;56108;48.730;9.304;2023-06-22T12:09:47;6.03;;;4.00;;
966;SDS011;56108;48.730;9.304;2023-06-22T12:11:55;4.83;;;4.20;;
966;SDS011;56108;48.730;9.304;2023-06-22T12:14:03;6.63;;;4.40;;
966;SDS011;56108;48.730;9.304;2023-06-22T12:16:11;4.63;;;4.23;;
966;SDS011;56108;48.730;9.304;2023-06-22T12:18:19;5.03;;;4.17;;
966;SDS011;56108;48.730;9.304;2023-06-22T12:20:28;4.63;;;4.23;;
966;SDS011;56108;48.730;9.304;2023-06-22T12:22:36;4.67;;;3.47;;
966;SDS011;56108;48.730;9.304;2023-06-22T12:24:48;7.63;;;3.67;;
966;SDS011;56108;48.730;9.304;2023-06-22T12:26:56;7.30;;;4.13;;
966;SDS011;56108;48.730;9.304;2023-06-22T12:29:04;5.37;;;4.03;;
966;SDS011;56108;48.730;9.304;2023-06-22T12:31:12;5.00;;;4.10;;
966;SDS011;56108;48.730;9.304;2023-06-22T12:33:20;4.73;;;4.23;;
966;SDS011;56108;48.730;9.304;2023-06-22T12:35:29;6.60;;;3.80;;
966;SDS011;56108;48.730;9.304;2023-06-22T12:37:37;9.10;;;4.70;;
966;SDS011;56108;48.730;9.304;2023-06-22T12:39:45;4.43;;;3.73;;
966;SDS011;56108;48.730;9.304;2023-06-22T12:41:55;4.70;;;3.37;;
966;SDS011;56108;48.730;9.304;2023-06-22T12:44:04;10.80;;;4.40;;
966;SDS011;56108;48.730;9.304;2023-06-22T12:46:12;6.20;;;3.77;;
966;SDS011;56108;48.730;9.304;2023-06-22T12:48:22;3.80;;;3.43;;
966;SDS011;56108;48.730;9.304;2023-06-22T12:50:30;4.83;;;4.13;;
966;SDS011;56108;48.730;9.304;2023-06-22T12:52:40;5.90;;;4.50;;
966;SDS011;56108;48.730;9.304;2023-06-22T12:54:51;5.60;;;4.20;;
966;SDS011;56108;48.730;9.304;2023-06-22T12:57:00;5.53;;;4.00;;
966;SDS011;56108;48.730;9.304;2023-06-22T12:59:09;4.93;;;4.33;;
966;SDS011;56108;48.730;9.304;2023-06-22T13:01:17;5.70;;;4.20;;
966;SDS011;56108;48.730;9.304;2023-06-22T13:03:27;4.60;;;4.10;;
966;SDS011;56108;48.730;9.304;2023-06-22T13:05:35;6.17;;;4.13;;
966;SDS011;56108;48.730;9.304;2023-06-22T13:07:43;4.10;;;3.80;;
966;SDS011;56108;48.730;9.304;2023-06-22T13:09:54;4.60;;;3.50;;
966;SDS011;56108;48.730;9.304;2023-06-22T13:12:02;4.47;;;4.07;;
966;SDS011;56108;48.730;9.304;2023-06-22T13:14:10;4.80;;;3.87;;
966;SDS011;56108;48.730;9.304;2023-06-22T13:16:18;4.03;;;3.17;;
966;SDS011;56108;48.730;9.304;2023-06-22T13:18:26;5.63;;;3.40;;
966;SDS011;56108;48.730;9.304;2023-06-22T13:20:34;5.73;;;4.33;;
966;SDS011;56108;48.730;9.304;2023-06-22T13:22:45;5.07;;;4.17;;
966;SDS011;56108;48.730;9.304;2023-06-22T13:24:57;4.97;;;3.63;;